Time;durP1;ratioP1;P1;durP2;ratioP2;P2;SDS_P1;SDS_P2;PMS_P1;PMS_P2;Temp;Humidity;BMP_temperature;BMP_pressure;BME280_temperature;BME280_humidity;BME280_pressure;Samples;Min_cycle;Max_cycle;Signal;HPM_P1;HPM_P2
2021/09/24 00:01:37;;;;;;;14.85;9.95;;;;;;;7.97;99.51;144218.38;1834993;77;22125;-64
2021/09/24 00:04:12;;;;;;;15.78;9.53;;;;;;;7.96;99.63;144215.89;1853561;77;22131;-58
2021/09/24 00:06:48;;;;;;;15.08;10.45;;;;;;;8.00;99.69;144225.88;1819428;77;27974;-64
2021/09/24 00:09:23;;;;;;;14.18;9.30;;;;;;;8.08;99.63;144244.64;1843394;77;22569;-59
2021/09/24 00:12:23;;;;;;;15.10;9.95;;;;;;;8.08;99.60;144243.41;1834052;77;22619;-67
2021/09/24 00:14:59;;;;;;;13.95;9.28;;;;;;;8.09;99.70;144245.87;1835005;77;22120;-64
2021/09/24 00:17:53;;;;;;;19.92;10.38;;;;;;;8.14;99.75;144258.41;1834805;77;22137;-62
2021/09/24 00:20:27;;;;;;;16.70;10.05;;;;;;;8.16;99.75;144264.66;1835088;77;22128;-70
2021/09/24 00:23:21;;;;;;;15.88;10.25;;;;;;;8.13;99.88;144255.92;1834966;77;22579;-60
2021/09/24 00:26:17;;;;;;;14.18;9.60;;;;;;;8.08;100.00;144244.64;1834941;77;22136;-59
2021/09/24 00:28:52;;;;;;;15.55;9.90;;;;;;;8.13;100.00;144255.92;1835024;77;20211;-65
2021/09/24 00:31:27;;;;;;;19.92;10.98;;;;;;;8.16;100.00;144263.42;1853538;77;22131;-64
2021/09/24 00:34:27;;;;;;;18.30;11.10;;;;;;;8.19;100.00;144270.92;1853490;77;22159;-63
2021/09/24 00:37:02;;;;;;;13.53;9.38;;;;;;;8.21;100.00;144275.94;1834999;77;22547;-62
2021/09/24 00:39:36;;;;;;;16.32;10.45;;;;;;;8.24;100.00;144283.44;1843654;77;22171;-62
2021/09/24 00:42:11;;;;;;;14.03;9.70;;;;;;;8.25;100.00;144285.97;1835005;77;22548;-62
2021/09/24 00:44:51;;;;;;;15.30;10.43;;;;;;;8.29;100.00;144294.72;1853590;77;22128;-57
2021/09/24 00:47:44;;;;;;;16.45;10.65;;;;;;;8.30;100.00;144297.25;1834954;77;22137;-63
2021/09/24 00:50:19;;;;;;;17.25;10.70;;;;;;;8.29;100.00;144295.95;1835078;77;22128;-58
2021/09/24 00:52:54;;;;;;;14.18;9.70;;;;;;;8.32;100.00;144302.22;1853747;77;22160;-61
2021/09/24 00:55:49;;;;;;;14.28;10.18;;;;;;;8.32;100.00;144303.50;1835017;77;22128;-69
2021/09/24 00:58:24;;;;;;;16.25;11.10;;;;;;;8.32;100.00;144302.22;1835051;77;22543;-65
2021/09/24 01:01:00;;;;;;;17.85;10.55;;;;;;;8.32;100.00;144303.50;1834917;77;22177;-58
2021/09/24 01:03:54;;;;;;;15.93;10.08;;;;;;;8.33;100.00;144305.98;1853517;77;22135;-61
2021/09/24 01:06:29;;;;;;;14.80;9.90;;;;;;;8.36;100.00;144313.48;1853559;77;22124;-58
2021/09/24 01:09:24;;;;;;;15.05;10.48;;;;;;;8.42;100.00;144327.30;1834980;77;22168;-56
2021/09/24 01:12:02;;;;;;;13.38;9.15;;;;;;;8.44;100.00;144333.56;1834996;77;22124;-61
2021/09/24 01:15:00;;;;;;;14.38;10.05;;;;;;;8.48;100.00;144342.34;1819395;77;28013;-66
2021/09/24 01:17:36;;;;;;;13.60;8.75;;;;;;;8.54;100.00;144356.13;1853572;77;22120;-60
2021/09/24 01:20:30;;;;;;;12.53;8.70;;;;;;;8.56;100.00;144361.13;1834963;77;22136;-66
2021/09/24 01:23:05;;;;;;;14.58;9.03;;;;;;;8.55;100.00;144359.89;1853548;77;22550;-61
2021/09/24 01:25:40;;;;;;;13.95;9.98;;;;;;;8.54;100.00;144356.13;1853542;77;22139;-60
2021/09/24 01:28:35;;;;;;;18.10;10.43;;;;;;;8.58;100.00;144366.16;1853504;77;22554;-63
2021/09/24 01:31:16;;;;;;;14.10;10.25;;;;;;;8.58;100.00;144366.16;1834185;77;22173;-60
2021/09/24 01:34:11;;;;;;;12.30;9.13;;;;;;;8.58;100.00;144366.16;1843456;77;22136;-59
2021/09/24 01:37:04;;;;;;;15.58;9.20;;;;;;;8.59;100.00;144368.64;1835018;77;22132;-57
2021/09/24 01:39:39;;;;;;;14.40;9.35;;;;;;;8.61;100.00;144373.66;1834993;77;22128;-60
2021/09/24 01:42:14;;;;;;;18.00;9.10;;;;;;;8.63;100.00;144378.67;1834997;77;22543;-58
2021/09/24 01:45:10;;;;;;;14.83;9.68;;;;;;;8.64;100.00;144382.41;1834962;77;22132;-60
2021/09/24 01:47:45;;;;;;;15.83;10.03;;;;;;;8.65;100.00;144383.64;1853720;77;22155;-63
2021/09/24 01:50:20;;;;;;;14.75;9.43;;;;;;;8.65;100.00;144384.94;1834989;77;22218;-61
2021/09/24 01:52:55;;;;;;;15.18;9.83;;;;;;;8.65;100.00;144383.64;1835009;77;22121;-64
2021/09/24 01:55:30;;;;;;;16.55;10.20;;;;;;;8.64;100.00;144382.41;1853605;77;22131;-56
2021/09/24 01:58:05;;;;;;;15.53;10.18;;;;;;;8.68;100.00;144391.19;1834993;77;22571;-66
2021/09/24 02:00:41;;;;;;;14.90;10.20;;;;;;;8.69;100.00;144393.69;1834960;77;22132;-57
2021/09/24 02:03:35;;;;;;;16.35;10.35;;;;;;;8.71;100.00;144398.70;1853483;77;22131;-61
2021/09/24 02:06:10;;;;;;;14.35;10.48;;;;;;;8.72;100.00;144401.19;1853636;77;22172;-61
2021/09/24 02:09:04;;;;;;;15.72;11.15;;;;;;;8.74;100.00;144406.20;1853485;77;22566;-58
2021/09/24 02:11:39;;;;;;;17.00;10.45;;;;;;;8.77;100.00;144412.47;1819410;77;38186;-61
2021/09/24 02:14:14;;;;;;;13.05;9.28;;;;;;;8.82;100.00;144426.23;1835015;77;22128;-62
2021/09/24 02:16:49;;;;;;;16.25;10.35;;;;;;;8.83;100.00;144428.77;1853553;77;22132;-61
2021/09/24 02:19:32;;;;;;;19.73;10.32;;;;;;;8.83;100.00;144427.53;1834179;77;22134;-60
2021/09/24 02:22:25;;;;;;;15.55;9.95;;;;;;;8.85;100.00;144432.50;1834983;77;22136;-63
2021/09/24 02:25:00;;;;;;;13.58;9.98;;;;;;;8.84;100.00;144431.25;1853456;77;22182;-65
2021/09/24 02:27:35;;;;;;;12.78;10.05;;;;;;;8.84;100.00;144431.25;1835027;77;22125;-61
2021/09/24 02:30:11;;;;;;;13.38;9.58;;;;;;;8.83;100.00;144428.77;1853511;77;22135;-57
2021/09/24 02:33:06;;;;;;;16.00;9.65;;;;;;;8.82;100.00;144426.23;1834951;77;22136;-57
2021/09/24 02:35:41;;;;;;;15.68;10.65;;;;;;;8.83;100.00;144428.77;1835104;77;22193;-65
2021/09/24 02:38:36;;;;;;;16.12;10.30;;;;;;;8.83;100.00;144427.53;1834971;77;22136;-68
2021/09/24 02:41:11;;;;;;;14.60;10.53;;;;;;;8.84;100.00;144431.25;1835011;77;22611;-60
2021/09/24 02:44:06;;;;;;;16.25;11.80;;;;;;;8.86;100.00;144436.28;1834969;77;22136;-65
2021/09/24 02:46:42;;;;;;;18.90;11.68;;;;;;;8.86;100.00;144436.28;1835120;77;22125;-63
2021/09/24 02:49:16;;;;;;;23.65;11.93;;;;;;;8.90;100.00;144446.31;1835014;77;22128;-60
2021/09/24 02:52:10;;;;;;;19.80;12.37;;;;;;;8.94;100.00;144453.81;1835507;77;22137;-64
2021/09/24 02:54:51;;;;;;;19.32;12.00;;;;;;;8.93;100.00;144452.58;1834905;77;22604;-57
2021/09/24 02:57:32;;;;;;;21.62;12.65;;;;;;;8.95;100.00;144456.30;1834516;77;22299;-58
2021/09/24 03:00:27;;;;;;;18.90;11.22;;;;;;;8.99;100.00;144466.34;1853624;77;22131;-59
2021/09/24 03:03:08;;;;;;;18.02;11.40;;;;;;;9.01;100.00;144471.36;1834167;77;22188;-59
2021/09/24 03:05:42;;;;;;;20.02;11.65;;;;;;;9.02;100.00;144475.09;1835020;77;22172;-59
2021/09/24 03:08:17;;;;;;;18.57;11.78;;;;;;;9.01;100.00;144471.36;1853545;77;22124;-66
2021/09/24 03:10:52;;;;;;;21.35;12.45;;;;;;;9.01;100.00;144472.59;1853537;77;22550;-63
2021/09/24 03:13:46;;;;;;;16.25;10.88;;;;;;;9.02;100.00;144475.09;1853470;77;22135;-61
2021/09/24 03:16:21;;;;;;;14.90;10.55;;;;;;;9.06;100.00;144483.88;1853541;77;22124;-64
2021/09/24 03:18:55;;;;;;;18.17;10.10;;;;;;;9.08;100.00;144490.16;1853542;77;22156;-63
2021/09/24 03:21:50;;;;;;;14.47;10.18;;;;;;;9.10;100.00;144493.88;1853497;77;22143;-57
2021/09/24 03:24:25;;;;;;;14.90;10.30;;;;;;;9.10;100.00;144495.13;1819459;77;38050;-66
2021/09/24 03:27:18;;;;;;;15.65;10.30;;;;;;;9.17;100.00;144510.19;1835054;77;22594;-61
2021/09/24 03:30:13;;;;;;;15.50;10.15;;;;;;;9.16;100.00;144507.66;1853508;77;22135;-61
2021/09/24 03:32:48;;;;;;;15.20;10.35;;;;;;;9.16;100.00;144508.94;1819403;77;27989;-59
2021/09/24 03:35:23;;;;;;;15.10;9.48;;;;;;;9.22;100.00;144522.72;1834998;77;22152;-60
2021/09/24 03:37:58;;;;;;;17.10;10.85;;;;;;;9.21;100.00;144520.17;1853520;77;22160;-62
2021/09/24 03:40:52;;;;;;;16.27;10.10;;;;;;;9.21;100.00;144521.47;1834935;77;22160;-62
2021/09/24 03:43:46;;;;;;;21.17;11.83;;;;;;;9.21;100.00;144521.47;1853484;77;22131;-61
2021/09/24 03:46:21;;;;;;;18.90;10.43;;;;;;;9.21;100.00;144521.47;1853550;77;22542;-64
2021/09/24 03:48:57;;;;;;;19.82;10.93;;;;;;;9.19;100.00;144516.45;1834986;77;22608;-60
2021/09/24 03:51:51;;;;;;;15.05;10.08;;;;;;;9.16;100.00;144508.94;1834986;77;22120;-65
2021/09/24 03:54:32;;;;;;;15.78;10.20;;;;;;;9.14;100.00;144503.92;1834155;77;22583;-59
2021/09/24 03:57:09;;;;;;;15.08;10.93;;;;;;;9.11;100.00;144497.66;1853584;77;22234;-61
2021/09/24 03:59:43;;;;;;;14.38;10.55;;;;;;;9.11;100.00;144496.41;1843435;78;22128;-66
2021/09/24 04:02:18;;;;;;;18.75;11.88;;;;;;;9.13;100.00;144501.39;1834998;77;22133;-56
2021/09/24 04:04:55;;;;;;;13.48;10.15;;;;;;;9.13;100.00;144502.67;1853528;77;22550;-62
2021/09/24 04:07:30;;;;;;;16.05;10.15;;;;;;;9.16;100.00;144508.94;1834995;77;22124;-64
2021/09/24 04:10:07;;;;;;;17.60;10.72;;;;;;;9.18;100.00;144513.91;1834986;77;22133;-59
2021/09/24 04:13:00;;;;;;;14.25;9.83;;;;;;;9.21;100.00;144521.47;1834939;77;22133;-58
2021/09/24 04:15:35;;;;;;;16.57;10.68;;;;;;;9.22;100.00;144523.95;1853546;77;22543;-63
2021/09/24 04:18:10;;;;;;;14.73;9.63;;;;;;;9.22;100.00;144523.95;1835004;77;22179;-72
2021/09/24 04:20:46;;;;;;;14.18;9.25;;;;;;;9.24;100.00;144527.73;1835013;77;22133;-61
2021/09/24 04:23:42;;;;;;;16.07;9.03;;;;;;;9.24;100.00;144527.73;1853484;77;22136;-59
2021/09/24 04:26:36;;;;;;;17.32;10.20;;;;;;;9.23;100.00;144526.44;1853520;77;22120;-59
2021/09/24 04:29:16;;;;;;;13.30;9.50;;;;;;;9.22;100.00;144523.95;1834191;77;22173;-60
2021/09/24 04:31:51;;;;;;;14.10;9.13;;;;;;;9.21;100.00;144521.47;1835119;77;22163;-61
2021/09/24 04:34:45;;;;;;;13.22;9.03;;;;;;;9.21;100.00;144521.47;1834932;77;22136;-59
2021/09/24 04:37:20;;;;;;;15.63;9.20;;;;;;;9.21;100.00;144521.47;1835005;77;22132;-62
2021/09/24 04:40:14;;;;;;;15.30;9.55;;;;;;;9.21;100.00;144521.47;1853477;77;22595;-63
2021/09/24 04:43:09;;;;;;;13.48;8.93;;;;;;;9.23;100.00;144525.19;1834969;77;22125;-60
2021/09/24 04:45:44;;;;;;;13.90;8.80;;;;;;;9.23;100.00;144525.19;1837881;77;28453;-65
2021/09/24 04:48:38;;;;;;;14.50;9.05;;;;;;;9.30;100.00;144543.98;1853509;77;22546;-72
2021/09/24 04:51:13;;;;;;;15.43;9.08;;;;;;;9.33;100.00;144550.25;1853286;77;22140;-66
2021/09/24 04:54:08;;;;;;;14.18;8.70;;;;;;;9.32;100.00;144549.02;1828731;77;22184;-64
2021/09/24 04:56:44;;;;;;;13.75;8.75;;;;;;;9.32;100.00;144549.02;1818417;77;22172;-59
2021/09/24 04:59:37;;;;;;;12.15;8.63;;;;;;;9.32;100.00;144547.77;1819820;77;22195;-65
2021/09/24 05:02:31;;;;;;;12.65;8.08;;;;;;;9.31;100.00;144546.53;1818372;77;22159;-65
2021/09/24 05:05:12;;;;;;;14.10;7.80;;;;;;;9.30;100.00;144543.98;1818260;77;22192;-62
2021/09/24 05:08:06;;;;;;;12.60;8.13;;;;;;;9.29;100.00;144540.27;1818920;77;22570;-59
2021/09/24 05:11:00;;;;;;;14.05;8.20;;;;;;;9.30;100.00;144543.98;1818821;77;22191;-62
2021/09/24 05:13:35;;;;;;;11.00;7.75;;;;;;;9.30;100.00;144543.98;1815861;77;22183;-56
2021/09/24 05:16:16;;;;;;;14.25;8.65;;;;;;;9.34;100.00;144554.03;1834080;77;22176;-65
2021/09/24 05:18:50;;;;;;;14.30;8.23;;;;;;;9.34;100.00;144554.03;1814932;77;22168;-58
2021/09/24 05:21:25;;;;;;;12.25;7.47;;;;;;;9.37;100.00;144559.06;1817499;77;22152;-63
2021/09/24 05:24:39;;;;;;;13.70;7.65;;;;;;;9.40;100.00;144567.81;1810913;77;22291;-65
2021/09/24 05:27:21;;;;;;;12.18;7.78;;;;;;;9.41;100.00;144569.05;1825802;77;22269;-59
2021/09/24 05:29:56;;;;;;;13.85;8.58;;;;;;;9.42;100.00;144571.59;1830992;77;22192;-59
2021/09/24 05:32:31;;;;;;;12.73;6.95;;;;;;;9.43;100.00;144574.06;1817252;77;22172;-61
2021/09/24 05:35:26;;;;;;;11.97;8.38;;;;;;;9.47;100.00;144584.11;1818677;77;22191;-60
2021/09/24 05:38:06;;;;;;;13.68;7.40;;;;;;;9.48;100.00;144586.59;1816370;77;22259;-59
2021/09/24 05:40:41;;;;;;;14.58;7.95;;;;;;;9.50;100.00;144592.88;1853563;77;22167;-62
2021/09/24 05:43:37;;;;;;;12.03;8.18;;;;;;;9.55;100.00;144604.16;1819873;77;22176;-60
2021/09/24 05:46:12;;;;;;;13.62;8.73;;;;;;;9.57;100.00;144609.17;1821593;77;22168;-65
2021/09/24 05:48:48;;;;;;;12.75;7.45;;;;;;;9.60;100.00;144615.44;1829314;77;22187;-64
2021/09/24 05:52:05;;;;;;;11.30;7.83;;;;;;;9.59;100.00;144614.16;1817318;77;28045;-57
2021/09/24 05:54:39;;;;;;;11.85;7.67;;;;;;;9.64;100.00;144625.44;1837764;77;27996;-60
2021/09/24 05:57:34;;;;;;;14.18;8.40;;;;;;;9.71;100.00;144643.00;1822371;77;22204;-60
2021/09/24 06:00:14;;;;;;;11.12;7.17;;;;;;;9.71;100.00;144643.00;1827515;77;22566;-59
2021/09/24 06:03:15;;;;;;;11.28;7.17;;;;;;;9.71;100.00;144644.23;1812869;77;28033;-60
2021/09/24 06:05:50;;;;;;;11.22;7.20;;;;;;;9.77;100.00;144659.31;1844539;77;22144;-63
2021/09/24 06:08:49;;;;;;;11.80;7.00;;;;;;;9.80;100.00;144665.58;1828042;77;22175;-58
2021/09/24 06:11:27;;;;;;;13.25;8.03;;;;;;;9.77;100.00;144659.31;1844265;77;22187;-61
2021/09/24 06:14:27;;;;;;;11.68;7.37;;;;;;;9.77;100.00;144659.31;1825341;77;22218;-59
2021/09/24 06:17:20;;;;;;;11.10;7.15;;;;;;;9.78;100.00;144660.55;1817866;77;22148;-59
2021/09/24 06:19:56;;;;;;;11.40;6.70;;;;;;;9.76;100.00;144656.78;1823643;77;22247;-58
2021/09/24 06:22:56;;;;;;;10.43;6.97;;;;;;;9.76;100.00;144656.78;1817237;77;22322;-61
2021/09/24 06:25:31;;;;;;;9.85;6.28;;;;;;;9.76;100.00;144656.78;1817006;77;22236;-58
2021/09/24 06:28:30;;;;;;;9.88;6.87;;;;;;;9.75;100.00;144654.28;1816267;77;22682;-60
2021/09/24 06:31:33;;;;;;;13.13;7.53;;;;;;;9.77;100.00;144658.06;1834050;77;22191;-59
2021/09/24 06:34:13;;;;;;;10.00;6.83;;;;;;;9.77;100.00;144658.06;1833817;77;22247;-60
2021/09/24 06:37:07;;;;;;;13.75;7.15;;;;;;;9.75;100.00;144654.28;1835082;77;22136;-62
2021/09/24 06:40:04;;;;;;;10.38;6.20;;;;;;;9.73;100.00;144649.27;1853988;77;22132;-59
2021/09/24 06:42:45;;;;;;;13.60;7.40;;;;;;;9.74;100.00;144651.80;1836156;77;22205;-61
2021/09/24 06:45:40;;;;;;;11.28;6.72;;;;;;;9.76;100.00;144655.53;1834279;77;22566;-60
2021/09/24 06:48:36;;;;;;;12.47;7.40;;;;;;;9.80;100.00;144665.58;1820376;77;22148;-59
2021/09/24 06:51:29;;;;;;;11.60;6.22;;;;;;;9.83;100.00;144673.08;1841247;77;22246;-56
2021/09/24 06:54:04;;;;;;;12.25;7.35;;;;;;;9.88;100.00;144684.38;1813729;77;22260;-59
2021/09/24 06:56:41;;;;;;;13.98;8.60;;;;;;;9.91;100.00;144691.89;1819389;77;22681;-63
2021/09/24 06:59:17;;;;;;;12.78;6.00;;;;;;;9.95;100.00;144701.94;1826225;77;22242;-60
2021/09/24 07:02:12;;;;;;;11.12;6.47;;;;;;;9.99;100.00;144711.94;1816565;77;22618;-63
2021/09/24 07:04:53;;;;;;;9.63;6.15;;;;;;;10.03;100.00;144721.98;1830140;77;22253;-56
2021/09/24 07:07:48;;;;;;;10.38;6.45;;;;;;;10.06;100.00;144729.50;1835069;77;22132;-62
2021/09/24 07:10:28;;;;;;;10.53;6.97;;;;;;;10.08;100.00;144734.52;1830165;77;22170;-63
2021/09/24 07:13:22;;;;;;;11.50;6.55;;;;;;;10.10;100.00;144739.55;1834889;77;22132;-62
2021/09/24 07:15:58;;;;;;;11.05;6.20;;;;;;;10.12;100.00;144744.53;1821517;77;22187;-59
2021/09/24 07:18:53;;;;;;;11.50;7.17;;;;;;;10.14;100.00;144749.55;1853430;77;22574;-62
2021/09/24 07:21:47;;;;;;;11.20;7.60;;;;;;;10.17;100.00;144757.06;1800614;79;22188;-59
2021/09/24 07:24:22;;;;;;;10.85;6.97;;;;;;;10.17;100.00;144757.06;1834621;77;22216;-59
2021/09/24 07:27:00;;;;;;;9.83;6.65;;;;;;;10.17;100.00;144755.81;1853363;77;22554;-61
2021/09/24 07:29:54;;;;;;;10.65;6.47;;;;;;;10.24;100.00;144772.12;1813204;77;22140;-58
2021/09/24 07:32:29;;;;;;;9.88;6.05;;;;;;;10.26;100.00;144777.16;1827093;77;22176;-59
2021/09/24 07:35:23;;;;;;;7.87;5.35;;;;;;;10.25;100.00;144774.63;1820659;77;22229;-57
2021/09/24 07:37:58;;;;;;;9.10;5.60;;;;;;;10.22;100.00;144769.59;1795562;77;28104;-62
2021/09/24 07:40:53;;;;;;;9.68;6.47;;;;;;;10.26;100.00;144777.16;1821128;77;22578;-57
2021/09/24 07:43:28;;;;;;;9.70;6.75;;;;;;;10.26;100.00;144777.16;1797478;77;28136;-61
2021/09/24 07:46:22;;;;;;;9.30;5.95;;;;;;;10.37;100.00;144804.78;1834567;77;22168;-58
2021/09/24 07:49:17;;;;;;;8.43;6.00;;;;;;;10.42;100.00;144817.31;1835036;77;22120;-58
2021/09/24 07:51:53;;;;;;;9.08;5.90;;;;;;;10.48;100.00;144831.09;1819302;77;27938;-63
2021/09/24 07:54:47;;;;;;;9.25;6.03;;;;;;;10.60;100.00;144861.20;1834656;77;22559;-58
2021/09/24 07:57:24;;;;;;;11.93;6.45;;;;;;;10.69;100.00;144882.56;1834601;77;22160;-60
2021/09/24 08:00:18;;;;;;;10.70;6.40;;;;;;;10.81;100.00;144913.92;1834894;77;22575;-61
2021/09/24 08:03:12;;;;;;;10.72;6.12;;;;;;;10.92;100.00;144940.25;1853314;77;22135;-61
2021/09/24 08:05:46;;;;;;;10.03;6.75;;;;;;;11.00;100.00;144959.06;1834519;77;22180;-60
2021/09/24 08:08:21;;;;;;;13.15;8.38;;;;;;;11.05;100.00;144972.86;1853216;77;22164;-62
2021/09/24 08:10:57;;;;;;;10.90;6.37;;;;;;;11.05;100.00;144972.86;1834911;77;22624;-56
2021/09/24 08:13:32;;;;;;;10.10;6.67;;;;;;;11.02;100.00;144965.34;1853466;77;20099;-57
2021/09/24 08:16:08;;;;;;;10.85;6.40;;;;;;;11.04;100.00;144969.08;1834576;77;22157;-62
2021/09/24 08:19:02;;;;;;;10.13;6.83;;;;;;;11.10;100.00;144984.16;1834928;77;22153;-60
2021/09/24 08:21:37;;;;;;;10.25;6.35;;;;;;;11.21;100.00;145010.50;1831025;77;22304;-58
2021/09/24 08:24:12;;;;;;;10.13;6.87;;;;;;;11.30;100.00;145033.11;1809789;77;22196;-60
2021/09/24 08:27:06;;;;;;;10.50;6.97;;;;;;;11.42;100.00;145063.23;1853357;77;22139;-59
2021/09/24 08:30:24;;;;;;;9.10;6.42;;;;;;;11.49;100.00;145079.53;1833190;77;22222;-63
2021/09/24 08:33:05;;;;;;;10.55;7.03;;;;;;;11.57;100.00;145098.34;1853471;77;22233;-60
2021/09/24 08:35:43;;;;;;;10.20;6.78;;;;;;;11.61;100.00;145109.66;1834644;77;22215;-61
2021/09/24 08:38:25;;;;;;;9.58;6.78;;;;;;;11.69;100.00;145129.73;1853362;77;22215;-60
2021/09/24 08:41:25;;;;;;;9.53;6.40;;;;;;;11.76;100.00;145146.08;1853502;77;22166;-62
2021/09/24 08:43:58;;;;;;;11.12;7.53;;;;;;;11.89;100.00;145178.75;1834897;77;22551;-61
2021/09/24 08:46:34;;;;;;;10.98;6.92;;;;;;;12.07;99.66;145221.45;1824329;77;22191;-61
2021/09/24 08:49:09;;;;;;;8.30;6.25;;;;;;;12.28;98.84;145272.94;1817326;77;22164;-59
2021/09/24 08:51:50;;;;;;;10.88;6.30;;;;;;;12.54;97.99;145336.97;1823306;77;22610;-61
2021/09/24 08:54:31;;;;;;;10.30;7.08;;;;;;;12.69;97.06;145374.66;1853267;77;22673;-63
2021/09/24 08:57:11;;;;;;;11.20;8.40;;;;;;;12.79;95.96;145399.78;1853404;77;22167;-60
2021/09/24 08:59:46;;;;;;;15.53;8.80;;;;;;;12.81;95.31;145404.83;1834567;77;22566;-60
2021/09/24 09:02:27;;;;;;;10.68;7.03;;;;;;;12.92;95.13;145429.95;1834156;77;22155;-63
2021/09/24 09:05:03;;;;;;;10.80;7.12;;;;;;;13.06;94.28;145465.16;1853224;77;22152;-58
2021/09/24 09:07:46;;;;;;;9.63;6.50;;;;;;;13.18;93.59;145494.08;1853217;77;22263;-63
2021/09/24 09:10:46;;;;;;;11.05;7.03;;;;;;;13.40;92.43;145548.16;1853738;77;22243;-60
2021/09/24 09:13:25;;;;;;;15.38;9.20;;;;;;;13.73;91.75;145629.86;1830288;77;22200;-59
2021/09/24 09:16:29;;;;;;;11.83;7.03;;;;;;;14.11;90.08;145724.17;1816888;77;22702;-62
2021/09/24 09:19:33;;;;;;;15.20;7.53;;;;;;;14.45;88.40;145807.22;1839073;77;22234;-60
2021/09/24 09:22:26;;;;;;;10.08;5.45;;;;;;;14.64;87.44;145852.56;1826192;77;22582;-62
2021/09/24 09:25:42;;;;;;;10.10;5.53;;;;;;;14.71;85.78;145870.19;1814319;77;22220;-59
2021/09/24 09:28:42;;;;;;;9.23;5.72;;;;;;;14.79;85.57;145890.31;1837639;77;22245;-60
2021/09/24 09:31:28;;;;;;;9.13;4.85;;;;;;;14.88;84.25;145912.97;1836927;77;22179;-63
2021/09/24 09:34:34;;;;;;;9.18;4.50;;;;;;;14.78;83.46;145887.77;1806130;77;22174;-63
2021/09/24 09:37:26;;;;;;;7.05;4.25;;;;;;;14.65;83.85;145855.06;1848079;77;22188;-59
2021/09/24 09:40:09;;;;;;;8.83;4.12;;;;;;;14.58;83.91;145837.44;1831422;77;22574;-61
2021/09/24 09:43:03;;;;;;;6.97;3.65;;;;;;;14.39;83.48;145790.84;1834480;77;22164;-61
2021/09/24 09:45:39;;;;;;;6.60;3.90;;;;;;;14.25;83.53;145756.91;1853381;77;22131;-62
2021/09/24 09:48:34;;;;;;;9.10;4.17;;;;;;;14.27;83.34;145761.91;1833057;77;22173;-59
2021/09/24 09:51:22;;;;;;;6.97;3.37;;;;;;;14.38;82.75;145788.36;1847083;77;22229;-62
2021/09/24 09:53:57;;;;;;;7.72;3.17;;;;;;;14.35;80.99;145782.06;1814550;77;22551;-59
2021/09/24 09:56:51;;;;;;;7.53;2.62;;;;;;;14.46;81.20;145809.72;1834835;77;22137;-60
2021/09/24 09:59:56;;;;;;;10.58;2.77;;;;;;;14.59;79.81;145841.22;1834847;77;22160;-60
2021/09/24 10:02:37;;;;;;;7.87;2.65;;;;;;;14.72;78.39;145872.69;1809083;77;22215;-61
2021/09/24 10:05:38;;;;;;;4.72;2.02;;;;;;;14.89;78.40;145915.47;1834674;77;22592;-61
2021/09/24 10:08:32;;;;;;;7.00;2.30;;;;;;;15.03;74.37;145948.19;1834528;77;22555;-64
2021/09/24 10:11:39;;;;;;;6.40;1.60;;;;;;;15.08;71.29;145960.77;1835408;77;22597;-64
2021/09/24 10:14:21;;;;;;;5.08;1.40;;;;;;;15.20;70.50;145990.98;1833832;77;22680;-60
2021/09/24 10:16:56;;;;;;;6.70;1.50;;;;;;;15.10;66.16;145967.06;1835001;77;22501;-60
2021/09/24 10:19:56;;;;;;;4.33;1.27;;;;;;;15.00;65.94;145940.64;1827830;77;22254;-63
2021/09/24 10:22:32;;;;;;;5.42;1.07;;;;;;;14.89;65.55;145915.47;1817177;77;22649;-62
2021/09/24 10:25:09;;;;;;;4.53;1.20;;;;;;;14.84;65.56;145902.89;1807090;77;27976;-63
2021/09/24 10:27:45;;;;;;;4.58;1.10;;;;;;;14.89;65.64;145915.47;1817484;77;22175;-61
2021/09/24 10:30:40;;;;;;;5.55;1.25;;;;;;;14.81;65.02;145895.34;1804538;77;22205;-61
2021/09/24 10:33:16;;;;;;;4.42;1.20;;;;;;;14.71;64.48;145870.19;1834693;77;27982;-61
2021/09/24 10:35:55;;;;;;;4.45;1.30;;;;;;;14.56;65.17;145832.44;1827492;78;28397;-62
2021/09/24 10:38:33;;;;;;;3.80;1.60;;;;;;;14.51;66.28;145822.31;1835004;77;22184;-59
2021/09/24 10:41:13;;;;;;;3.55;1.12;;;;;;;14.51;67.25;145822.31;1834836;77;22191;-58
2021/09/24 10:43:52;;;;;;;3.35;1.30;;;;;;;14.42;67.12;145799.64;1834898;77;22164;-60
2021/09/24 10:46:47;;;;;;;5.40;1.65;;;;;;;14.29;67.75;145766.94;1834685;77;22183;-59
2021/09/24 10:49:28;;;;;;;6.30;2.02;;;;;;;14.27;68.87;145761.91;1819226;77;27952;-61
2021/09/24 10:52:08;;;;;;;8.33;1.75;;;;;;;14.42;69.22;145799.64;1834765;77;22623;-61
2021/09/24 10:55:00;;;;;;;6.83;2.22;;;;;;;14.54;69.01;145828.64;1834246;77;22205;-58
2021/09/24 10:57:56;;;;;;;11.45;2.02;;;;;;;14.68;68.34;145862.59;1834962;77;22161;-62
2021/09/24 11:00:51;;;;;;;5.25;1.50;;;;;;;14.79;68.30;145890.31;1834965;77;22148;-60
2021/09/24 11:03:29;;;;;;;5.42;2.10;;;;;;;14.82;67.79;145897.84;1819372;77;38751;-58
2021/09/24 11:06:59;;;;;;;5.50;1.57;;;;;;;14.87;67.87;145910.44;1892678;76;22191;-59
2021/09/24 11:09:55;;;;;;;6.95;2.40;;;;;;;14.89;67.93;145915.47;1838910;77;22195;-63
2021/09/24 11:12:47;;;;;;;6.60;1.87;;;;;;;14.98;69.00;145936.84;1833861;77;22256;-60
2021/09/24 11:16:08;;;;;;;8.30;2.27;;;;;;;15.28;69.03;146011.13;1834595;77;22165;-61
2021/09/24 11:19:00;;;;;;;8.60;2.27;;;;;;;15.58;68.37;146084.16;1834085;77;22196;-62
2021/09/24 11:22:14;;;;;;;7.80;2.30;;;;;;;15.78;68.19;146134.58;1853340;77;22630;-60
2021/09/24 11:25:01;;;;;;;7.97;2.22;;;;;;;15.82;67.44;146144.66;1834709;77;22132;-58
2021/09/24 11:27:47;;;;;;;8.33;2.12;;;;;;;15.73;67.63;146121.98;1834958;77;20206;-62
2021/09/24 11:30:25;;;;;;;9.03;2.33;;;;;;;15.73;67.61;146121.98;1835010;77;22129;-58
2021/09/24 11:33:48;;;;;;;7.42;1.72;;;;;;;15.71;67.30;146116.94;1834892;77;22136;-58
2021/09/24 11:37:01;;;;;;;6.55;2.27;;;;;;;15.56;67.34;146080.36;1853233;77;22588;-58
2021/09/24 11:39:38;;;;;;;5.75;1.77;;;;;;;15.39;68.36;146037.55;1834889;77;22595;-61
2021/09/24 11:42:37;;;;;;;4.65;1.90;;;;;;;15.28;69.36;146011.13;1818999;77;28057;-57
2021/09/24 11:45:25;;;;;;;3.77;1.40;;;;;;;15.16;70.78;145980.91;1833986;77;22167;-58
2021/09/24 11:48:33;;;;;;;4.08;1.20;;;;;;;14.75;73.08;145880.22;1833974;77;22180;-59
2021/09/24 11:51:15;;;;;;;6.60;1.40;;;;;;;14.30;75.47;145769.48;1835045;77;22132;-62
2021/09/24 11:54:09;;;;;;;4.97;1.50;;;;;;;14.03;77.61;145704.06;1853483;77;22147;-60
2021/09/24 11:57:16;;;;;;;6.95;1.45;;;;;;;14.04;78.80;145706.61;1834628;77;22247;-58
2021/09/24 11:59:52;;;;;;;3.95;1.25;;;;;;;14.25;79.61;145756.91;1853425;77;22127;-59
2021/09/24 12:02:46;;;;;;;3.72;1.20;;;;;;;14.51;79.11;145822.31;1834908;77;22136;-59
2021/09/24 12:05:27;;;;;;;4.47;1.52;;;;;;;14.60;78.47;145842.47;1833982;77;22223;-60
2021/09/24 12:08:05;;;;;;;5.87;1.62;;;;;;;14.68;78.58;145862.59;1834959;77;22163;-60
2021/09/24 12:10:45;;;;;;;7.90;1.92;;;;;;;14.59;77.60;145839.97;1853491;77;22203;-59
2021/09/24 12:13:42;;;;;;;6.28;1.77;;;;;;;14.46;77.47;145809.72;1834106;77;22599;-60
2021/09/24 12:16:28;;;;;;;3.72;1.17;;;;;;;14.38;77.20;145789.61;1834768;77;22136;-62
2021/09/24 12:19:13;;;;;;;6.03;1.70;;;;;;;14.42;77.48;145799.64;1819229;77;27958;-61
2021/09/24 12:22:10;;;;;;;6.95;1.75;;;;;;;14.82;74.87;145897.84;1800604;79;22239;-62
2021/09/24 12:24:51;;;;;;;5.85;1.50;;;;;;;14.92;74.31;145921.77;1853442;77;22159;-61
2021/09/24 12:27:46;;;;;;;6.03;1.17;;;;;;;14.98;74.08;145938.14;1833659;77;22291;-63
2021/09/24 12:30:44;;;;;;;4.58;1.07;;;;;;;14.90;73.64;145917.97;1833182;77;22224;-64
2021/09/24 12:33:22;;;;;;;7.80;1.87;;;;;;;14.84;74.04;145902.89;1834180;77;22161;-59
2021/09/24 12:36:22;;;;;;;3.33;1.22;;;;;;;14.85;73.62;145905.39;1852559;77;22295;-65
2021/09/24 12:39:15;;;;;;;5.47;1.50;;;;;;;14.98;72.60;145938.14;1833549;77;22194;-61
2021/09/24 12:42:00;;;;;;;11.33;1.50;;;;;;;14.97;72.83;145935.59;1833979;77;22142;-61